.
WxDataArchive / Data Records for 2016-02-16
2016-02-15 February 2016 2016-02-17

Data Records for Tuesday, 16 February 2016

Time	Temp	Chill	HIndex	Humid	Dewpt	 Wind 	HiWind	WindDir	Rain 	Barom
-----	----	-----	------	-----	-----	------	------	-------	-----	-----
00:00	27.9	27.9	27.9	90	25.4	0	0	---	0.00	29.818 
00:05	27.9	27.9	27.9	90	25.4	0	0	---	0.00	29.818 
00:10	27.9	27.9	27.9	90	25.4	0	0	---	0.00	29.818 
00:15	27.9	27.9	27.9	90	25.4	0	0	---	0.00	29.815 
00:20	27.9	27.9	27.9	90	25.4	0	0	---	0.00	29.815 
00:25	27.9	27.9	27.9	90	25.4	0	0	---	0.00	29.815 
00:30	27.9	27.9	27.9	90	25.4	0	0	---	0.00	29.805 
00:35	27.9	27.9	27.9	90	25.4	0	0	---	0.00	29.805 
00:40	27.9	27.9	27.9	90	25.4	0	0	---	0.00	29.805 
00:45	27.9	27.9	27.9	90	25.4	0	0	---	0.00	29.796 
00:50	27.9	27.9	27.9	90	25.4	0	0	---	0.00	29.796 
00:55	27.9	27.9	27.9	90	25.4	0	0	---	0.00	29.796 
01:00	27.9	27.9	27.9	90	25.4	0	0	---	0.00	29.797 
01:05	27.9	27.9	27.9	90	25.4	0	0	---	0.00	29.797 
01:10	27.9	27.9	27.9	90	25.4	0	0	---	0.00	29.797 
01:15	27.9	27.9	27.9	90	25.4	0	0	---	0.00	29.794 
01:20	27.9	27.9	27.9	90	25.4	0	0	---	0.00	29.794 
01:25	27.8	27.8	27.8	90	25.3	0	0	---	0.00	29.794 
01:30	27.8	27.8	27.8	90	25.3	0	0	---	0.00	29.786 
01:35	27.8	27.8	27.8	90	25.3	0	0	---	0.00	29.786 
01:40	27.8	27.8	27.8	90	25.3	0	0	---	0.00	29.786 
01:45	27.6	27.6	27.6	90	25.1	0	0	---	0.00	29.779 
01:50	27.6	27.6	27.6	90	25.1	0	0	---	0.00	29.779 
01:55	27.6	27.6	27.6	90	25.1	0	0	---	0.00	29.779 
02:00	27.6	27.6	27.6	90	25.1	0	0	---	0.00	29.778 
02:05	27.6	27.6	27.6	90	25.1	0	0	---	0.00	29.778 
02:10	27.6	27.6	27.6	90	25.1	0	0	---	0.00	29.778 
02:15	27.6	27.6	27.6	90	25.1	0	0	---	0.00	29.772 
02:20	27.6	27.6	27.6	90	25.1	0	0	---	0.00	29.772 
02:25	27.6	27.6	27.6	90	25.1	0	0	---	0.00	29.772 
02:30	27.8	27.8	27.8	90	25.3	0	0	---	0.00	29.768 
02:35	27.8	27.8	27.8	90	25.3	0	0	---	0.00	29.768 
02:40	27.8	27.8	27.8	90	25.3	0	0	---	0.00	29.768 
02:45	27.9	27.9	27.9	90	25.4	0	1	112	0.00	29.761 
02:50	27.9	27.9	27.9	90	25.4	0	0	---	0.00	29.761 
02:55	27.9	27.9	27.9	90	25.4	0	0	---	0.00	29.761 
03:00	27.9	27.9	27.9	90	25.4	0	0	---	0.00	29.759 
03:05	27.9	27.9	27.9	90	25.4	0	0	---	0.00	29.759 
03:10	27.9	27.9	27.9	90	25.4	0	0	---	0.00	29.759 
03:15	27.9	27.9	27.9	90	25.4	0	0	---	0.00	29.758 
03:20	27.9	27.9	27.9	90	25.4	0	0	---	0.00	29.758 
03:25	27.9	27.9	27.9	90	25.4	0	1	112	0.00	29.758 
03:30	27.9	27.9	27.9	90	25.4	0	0	---	0.00	29.759 
03:35	28.1	28.1	28.1	90	25.6	0	2	112	0.00	29.759 
03:40	28.1	28.1	28.1	90	25.6	0	0	---	0.00	29.759 
03:45	28.1	28.1	28.1	90	25.6	0	1	112	0.00	29.754 
03:50	28.1	28.1	28.1	89	25.3	0	0	---	0.00	29.754 
03:55	28.1	28.1	28.1	89	25.3	0	0	---	0.00	29.754 
04:00	28.1	28.1	28.1	89	25.3	0	0	---	0.00	29.754 
04:05	28.1	28.1	28.1	89	25.3	0	0	---	0.00	29.754 
04:10	28.1	28.1	28.1	89	25.3	0	0	---	0.00	29.754 
04:15	28.1	28.1	28.1	89	25.3	0	0	---	0.00	29.750 
04:20	28.1	28.1	28.1	89	25.3	0	0	---	0.00	29.750 
04:25	28.1	28.1	28.1	89	25.3	0	0	---	0.00	29.750 
04:30	28.1	28.1	28.1	89	25.3	0	1	112	0.00	29.745 
04:35	28.1	28.1	28.1	89	25.3	0	0	---	0.00	29.745 
04:40	28.1	28.1	28.1	89	25.3	0	0	---	0.00	29.745 
04:45	28.1	28.1	28.1	89	25.3	0	0	---	0.00	29.746 
04:50	28.1	28.1	28.1	89	25.3	0	0	---	0.00	29.746 
04:55	28.1	28.1	28.1	89	25.3	0	0	---	0.00	29.746 
05:00	28.1	28.1	28.1	89	25.3	0	0	---	0.00	29.753 
05:05	28.1	28.1	28.1	89	25.3	0	0	---	0.00	29.753 
05:10	28.1	28.1	28.1	89	25.3	0	0	---	0.00	29.753 
05:15	28.1	28.1	28.1	88	25.0	0	0	---	0.00	29.761 
05:20	28.1	28.1	28.1	88	25.0	0	0	---	0.00	29.761 
05:25	28.1	28.1	28.1	88	25.0	0	0	---	0.00	29.761 
05:30	28.1	28.1	28.1	88	25.0	0	0	---	0.00	29.768 
05:35	28.2	28.2	28.2	88	25.1	0	0	---	0.00	29.768 
05:40	28.2	28.2	28.2	88	25.1	0	0	---	0.00	29.768 
05:45	28.2	28.2	28.2	88	25.1	0	0	---	0.00	29.768 
05:50	28.2	28.2	28.2	88	25.1	0	0	---	0.00	29.768 
05:55	28.2	28.2	28.2	88	25.1	0	0	---	0.00	29.768 
06:00	28.2	28.2	28.2	88	25.1	0	0	---	0.00	29.762 
06:05	28.2	28.2	28.2	88	25.1	0	0	---	0.00	29.762 
06:10	28.2	28.2	28.2	88	25.1	0	1	112	0.00	29.762 
06:15	28.2	28.2	28.2	88	25.1	0	1	112	0.00	29.767 
06:20	28.2	28.2	28.2	88	25.1	0	0	---	0.00	29.767 
06:25	28.2	28.2	28.2	88	25.1	0	0	---	0.00	29.767 
06:30	28.2	28.2	28.2	88	25.1	0	1	112	0.00	29.768 
06:35	28.2	28.2	28.2	88	25.1	0	0	---	0.00	29.768 
06:40	28.2	28.2	28.2	88	25.1	0	0	---	0.00	29.768 
06:45	28.2	28.2	28.2	88	25.1	0	0	---	0.00	29.762 
06:50	28.2	28.2	28.2	88	25.1	0	0	---	0.00	29.762 
06:55	28.2	28.2	28.2	88	25.1	0	0	---	0.00	29.762 
07:00	28.2	28.2	28.2	88	25.1	0	0	---	0.00	29.763 
07:05	28.2	28.2	28.2	88	25.1	0	0	---	0.00	29.763 
07:10	28.2	28.2	28.2	88	25.1	0	0	---	0.00	29.763 
07:15	28.2	28.2	28.2	88	25.1	0	0	---	0.00	29.764 
07:20	28.2	28.2	28.2	88	25.1	0	0	---	0.00	29.764 
07:25	28.2	28.2	28.2	88	25.1	0	0	---	0.00	29.764 
07:30	28.2	28.2	28.2	88	25.1	0	0	---	0.00	29.765 
07:35	28.2	28.2	28.2	88	25.1	0	0	---	0.00	29.765 
07:40	28.2	28.2	28.2	88	25.1	0	0	---	0.00	29.765 
07:45	28.2	28.2	28.2	88	25.1	0	1	112	0.00	29.771 
07:50	28.4	28.4	28.4	88	25.3	0	0	---	0.00	29.771 
07:55	28.4	28.4	28.4	88	25.3	0	1	112	0.00	29.771 
08:00	28.4	28.4	28.4	88	25.3	0	0	---	0.00	29.780 
08:05	28.4	28.4	28.4	88	25.3	0	2	68	0.00	29.780 
08:10	28.5	28.5	28.5	88	25.4	0	1	68	0.00	29.780 
08:15	28.5	28.5	28.5	88	25.4	0	0	---	0.00	29.791 
08:20	28.5	28.5	28.5	89	25.7	0	2	68	0.00	29.791 
08:25	28.5	28.5	28.5	89	25.7	0	1	68	0.00	29.791 
08:30	28.5	28.5	28.5	89	25.7	0	1	68	0.00	29.798 
08:35	28.5	28.5	28.5	89	25.7	0	1	68	0.00	29.798 
08:40	28.5	28.5	28.5	89	25.7	0	1	68	0.00	29.798 
08:45	28.5	28.5	28.5	89	25.7	0	2	68	0.00	29.804 
08:50	28.5	28.5	28.5	89	25.7	0	2	68	0.00	29.804 
08:55	28.7	28.7	28.7	89	25.9	0	1	68	0.00	29.804 
09:00	28.7	28.7	28.7	89	25.9	0	2	68	0.00	29.810 
09:05	28.7	28.7	28.7	90	26.1	0	1	68	0.00	29.810 
09:10	28.7	28.7	28.7	90	26.1	0	1	68	0.00	29.810 
09:15	28.7	28.7	28.7	90	26.1	0	2	68	0.00	29.811 
09:20	28.7	28.7	28.7	90	26.1	0	2	68	0.00	29.811 
09:25	28.7	28.7	28.7	90	26.1	0	1	68	0.00	29.811 
09:30	28.5	28.5	28.5	90	25.9	0	1	68	0.00	29.816 
09:35	28.5	28.5	28.5	89	25.7	1	2	68	0.00	29.816 
09:40	28.4	28.4	28.4	89	25.6	1	2	68	0.00	29.816 
09:45	28.2	28.2	28.2	89	25.4	0	2	68	0.00	29.818 
09:50	28.4	28.4	28.4	89	25.6	1	3	292	0.00	29.818 
09:55	28.4	28.4	28.4	89	25.6	0	1	292	0.00	29.818 
10:00	28.4	28.4	28.4	89	25.6	1	2	292	0.00	29.826 
10:05	28.4	28.4	28.4	89	25.6	0	2	292	0.00	29.826 
10:10	28.4	28.4	28.4	88	25.3	1	2	292	0.00	29.826 
10:15	28.4	28.4	28.4	88	25.3	0	2	292	0.00	29.819 
10:20	28.5	28.5	28.5	88	25.4	0	2	292	0.00	29.819 
10:25	28.5	28.5	28.5	88	25.4	0	2	292	0.00	29.819 
10:30	28.5	28.5	28.5	88	25.4	1	2	292	0.00	29.818 
10:35	28.7	28.7	28.7	87	25.3	0	2	292	0.00	29.818 
10:40	28.7	28.7	28.7	87	25.3	0	2	292	0.00	29.818 
10:45	28.7	28.7	28.7	86	25.1	0	2	292	0.00	29.822 
10:50	28.7	28.7	28.7	86	25.1	0	1	292	0.00	29.822 
10:55	28.8	28.8	28.8	86	25.2	0	2	292	0.00	29.822 
11:00	28.8	28.8	28.8	86	25.2	0	2	292	0.00	29.822 
11:05	28.8	28.8	28.8	85	24.9	1	2	292	0.00	29.822 
11:10	29.0	29.0	29.0	85	25.1	0	1	292	0.00	29.822 
11:15	29.0	29.0	29.0	85	25.1	0	2	292	0.00	29.829 
11:20	29.0	29.0	29.0	85	25.1	1	2	292	0.00	29.829 
11:25	29.0	29.0	29.0	85	25.1	0	2	292	0.00	29.829 
11:30	29.0	29.0	29.0	85	25.1	0	1	292	0.00	29.834 
11:35	29.0	29.0	29.0	84	24.8	0	1	292	0.00	29.834 
11:40	29.0	29.0	29.0	84	24.8	0	2	292	0.00	29.834 
11:45	29.1	29.1	29.1	84	24.9	0	1	292	0.00	29.831 
11:50	29.3	29.3	29.3	84	25.1	0	2	292	0.00	29.831 
11:55	29.1	29.1	29.1	84	24.9	1	3	292	0.00	29.831 
12:00	29.1	29.1	29.1	84	24.9	1	2	292	0.00	29.827 
12:05	29.3	29.3	29.3	84	25.1	0	1	292	0.00	29.827 
12:10	29.4	29.4	29.4	84	25.2	0	1	292	0.00	29.827 
12:15	29.4	29.4	29.4	83	24.9	0	1	292	0.01	29.829 
12:20	29.4	29.4	29.4	83	24.9	0	0	---	0.00	29.829 
12:25	29.4	29.4	29.4	82	24.6	0	0	---	0.00	29.829 
12:30	29.4	29.4	29.4	82	24.6	0	1	292	0.00	29.826 
12:35	29.4	29.4	29.4	82	24.6	0	0	---	0.00	29.826 
12:40	29.4	29.4	29.4	82	24.6	0	1	292	0.00	29.826 
12:45	29.4	29.4	29.4	82	24.6	0	0	---	0.00	29.819 
12:50	29.4	29.4	29.4	82	24.6	0	1	292	0.00	29.819 
12:55	29.5	29.5	29.5	82	24.7	0	1	292	0.00	29.819 
13:00	29.5	29.5	29.5	81	24.4	0	2	292	0.00	29.812 
13:05	29.5	29.5	29.5	81	24.4	0	2	292	0.00	29.812 
13:10	29.5	29.5	29.5	81	24.4	0	0	---	0.00	29.812 
13:15	29.7	29.7	29.7	81	24.6	0	1	292	0.00	29.807 
13:20	29.8	29.8	29.8	81	24.7	0	0	---	0.00	29.807 
13:25	30.0	30.0	30.0	80	24.6	0	1	292	0.00	29.807 
13:30	30.1	30.1	30.1	80	24.7	0	1	292	0.00	29.807 
13:35	30.1	30.1	30.1	79	24.4	0	1	292	0.00	29.807 
13:40	30.1	30.1	30.1	79	24.4	0	0	---	0.00	29.807 
13:45	30.1	30.1	30.1	78	24.1	0	1	292	0.00	29.805 
13:50	30.3	30.3	30.3	78	24.3	0	1	292	0.00	29.805 
13:55	30.3	30.3	30.3	78	24.3	0	1	292	0.00	29.805 
14:00	30.3	30.3	30.3	78	24.3	0	2	292	0.00	29.803 
14:05	30.3	30.3	30.3	78	24.3	1	2	292	0.00	29.803 
14:10	30.1	30.1	30.1	78	24.1	1	4	292	0.00	29.803 
14:15	30.1	30.1	30.1	79	24.4	0	2	292	0.00	29.800 
14:20	30.1	30.1	30.1	79	24.4	0	2	292	0.00	29.800 
14:25	30.1	30.1	30.1	79	24.4	1	2	292	0.00	29.800 
14:30	30.1	30.1	30.1	79	24.4	1	4	292	0.00	29.798 
14:35	30.1	30.1	30.1	79	24.4	1	4	292	0.00	29.798 
14:40	30.1	30.1	30.1	79	24.4	1	2	292	0.00	29.798 
14:45	30.1	30.1	30.1	79	24.4	1	3	292	0.00	29.796 
14:50	30.1	30.1	30.1	79	24.4	1	3	292	0.00	29.796 
14:55	30.1	30.1	30.1	79	24.4	1	3	292	0.00	29.796 
15:00	30.1	30.1	30.1	79	24.4	1	4	292	0.00	29.800 
15:05	30.1	30.1	30.1	80	24.7	1	2	292	0.00	29.800 
15:10	30.3	30.3	30.3	80	24.9	1	2	292	0.00	29.800 
15:15	30.4	30.4	30.4	79	24.7	1	3	292	0.00	29.793 
15:20	30.4	30.4	30.4	79	24.7	1	3	292	0.00	29.793 
15:25	30.3	30.3	30.3	78	24.3	1	6	315	0.00	29.793 
15:30	30.4	30.4	30.4	78	24.4	0	2	315	0.00	29.793 
15:35	30.4	30.4	30.4	78	24.4	1	4	315	0.00	29.793 
15:40	30.6	30.6	30.6	78	24.6	1	3	315	0.00	29.793 
15:45	30.7	30.7	30.7	77	24.4	1	2	315	0.00	29.792 
15:50	30.9	30.9	30.9	77	24.6	0	2	315	0.00	29.792 
15:55	30.9	30.9	30.9	76	24.2	1	2	315	0.00	29.792 
16:00	31.0	31.0	31.0	75	24.0	1	3	315	0.00	29.790 
16:05	31.0	31.0	31.0	75	24.0	0	2	315	0.00	29.790 
16:10	31.2	31.2	31.2	74	23.9	1	2	315	0.00	29.790 
16:15	31.2	31.2	31.2	74	23.9	0	3	315	0.00	29.802 
16:20	31.2	31.2	31.2	74	23.9	1	2	315	0.00	29.802 
16:25	31.3	31.3	31.3	74	24.0	0	2	315	0.00	29.802 
16:30	31.3	31.3	31.3	73	23.7	1	2	315	0.00	29.805 
16:35	31.3	31.3	31.3	73	23.7	1	3	315	0.00	29.805 
16:40	31.3	31.3	31.3	73	23.7	1	3	315	0.00	29.805 
16:45	31.3	31.3	31.3	73	23.7	1	4	315	0.00	29.809 
16:50	31.3	31.3	31.3	73	23.7	1	3	315	0.00	29.809 
16:55	31.5	31.5	31.5	73	23.9	0	2	315	0.00	29.809 
17:00	31.5	31.5	31.5	73	23.9	1	2	315	0.00	29.808 
17:05	31.5	31.5	31.5	73	23.9	1	4	315	0.00	29.808 
17:10	31.5	31.5	31.5	73	23.9	2	5	315	0.00	29.808 
17:15	31.5	31.5	31.5	73	23.9	1	3	315	0.00	29.824 
17:20	31.5	31.5	31.5	73	23.9	1	2	315	0.00	29.824 
17:25	31.5	31.5	31.5	73	23.9	1	3	315	0.00	29.824 
17:30	31.5	31.5	31.5	73	23.9	1	5	338	0.00	29.837 
17:35	31.5	31.5	31.5	73	23.9	1	3	338	0.00	29.837 
17:40	31.5	31.5	31.5	73	23.9	1	4	315	0.00	29.837 
17:45	31.5	31.5	31.5	73	23.9	1	4	315	0.00	29.838 
17:50	31.5	31.5	31.5	73	23.9	1	3	315	0.00	29.838 
17:55	31.5	31.5	31.5	73	23.9	0	2	315	0.00	29.838 
18:00	31.5	31.5	31.5	73	23.9	0	2	315	0.00	29.849 
18:05	31.5	31.5	31.5	74	24.2	0	1	315	0.00	29.849 
18:10	31.5	31.5	31.5	74	24.2	0	1	315	0.00	29.849 
18:15	31.3	31.3	31.3	74	24.0	0	1	315	0.00	29.855 
18:20	31.3	31.3	31.3	74	24.0	0	0	---	0.00	29.855 
18:25	31.3	31.3	31.3	74	24.0	0	1	315	0.00	29.855 
18:30	31.3	31.3	31.3	75	24.3	0	0	---	0.00	29.865 
18:35	31.3	31.3	31.3	74	24.0	0	1	315	0.00	29.865 
18:40	31.3	31.3	31.3	74	24.0	0	1	315	0.00	29.865 
18:45	31.3	31.3	31.3	73	23.7	1	3	315	0.00	29.866 
18:50	31.5	31.5	31.5	73	23.9	0	3	315	0.00	29.866 
18:55	31.5	31.5	31.5	73	23.9	0	1	315	0.00	29.866 
19:00	31.5	31.5	31.5	73	23.9	0	1	315	0.00	29.869 
19:05	31.5	31.5	31.5	73	23.9	0	1	315	0.00	29.869 
19:10	31.5	31.5	31.5	73	23.9	0	1	315	0.00	29.869 
19:15	31.3	31.3	31.3	73	23.7	1	3	315	0.00	29.872 
19:20	31.5	31.5	31.5	73	23.9	0	2	315	0.00	29.872 
19:25	31.5	31.5	31.5	73	23.9	0	1	315	0.00	29.872 
19:30	31.3	31.3	31.3	73	23.7	0	2	315	0.00	29.874 
19:35	31.3	31.3	31.3	74	24.0	0	2	315	0.00	29.874 
19:40	31.3	31.3	31.3	74	24.0	0	1	315	0.00	29.874 
19:45	31.5	31.5	31.5	74	24.2	0	1	315	0.00	29.884 
19:50	31.3	31.3	31.3	74	24.0	0	1	315	0.00	29.884 
19:55	31.5	31.5	31.5	75	24.5	0	3	315	0.00	29.884 
20:00	31.5	31.5	31.5	75	24.5	0	0	---	0.00	29.890 
20:05	31.5	31.5	31.5	75	24.5	0	1	315	0.00	29.890 
20:10	31.5	31.5	31.5	75	24.5	0	2	315	0.00	29.890 
20:15	31.5	31.5	31.5	76	24.8	0	1	315	0.00	29.898 
20:20	31.5	31.5	31.5	76	24.8	0	2	315	0.00	29.898 
20:25	31.5	31.5	31.5	76	24.8	0	0	---	0.00	29.898 
20:30	31.5	31.5	31.5	77	25.1	0	0	---	0.00	29.895 
20:35	31.3	31.3	31.3	77	24.9	0	0	---	0.00	29.895 
20:40	31.3	31.3	31.3	77	24.9	0	1	315	0.00	29.895 
20:45	31.3	31.3	31.3	77	24.9	0	0	---	0.00	29.894 
20:50	31.2	31.2	31.2	78	25.2	0	0	---	0.00	29.894 
20:55	31.2	31.2	31.2	78	25.2	0	0	---	0.00	29.894 
21:00	31.2	31.2	31.2	78	25.2	0	0	---	0.00	29.900 
21:05	31.2	31.2	31.2	79	25.5	0	0	---	0.00	29.900 
21:10	31.2	31.2	31.2	79	25.5	0	0	---	0.00	29.900 
21:15	31.2	31.2	31.2	79	25.5	0	0	---	0.00	29.906 
21:20	31.2	31.2	31.2	79	25.5	0	0	---	0.00	29.906 
21:25	31.2	31.2	31.2	79	25.5	0	0	---	0.00	29.906 
21:30	31.2	31.2	31.2	80	25.8	0	0	---	0.00	29.905 
21:35	31.2	31.2	31.2	80	25.8	0	1	315	0.00	29.905 
21:40	31.2	31.2	31.2	80	25.8	0	1	315	0.00	29.905 
21:45	31.2	31.2	31.2	80	25.8	0	0	---	0.00	29.904 
21:50	31.0	31.0	31.0	80	25.6	0	0	---	0.00	29.904 
21:55	31.0	31.0	31.0	81	25.9	0	1	315	0.00	29.904 
22:00	31.0	31.0	31.0	81	25.9	0	1	315	0.00	29.916 
22:05	31.0	31.0	31.0	81	25.9	0	1	315	0.00	29.916 
22:10	31.0	31.0	31.0	81	25.9	0	1	315	0.00	29.916 
22:15	30.9	30.9	30.9	81	25.8	0	2	315	0.00	29.917 
22:20	30.9	30.9	30.9	81	25.8	0	2	315	0.00	29.917 
22:25	30.9	30.9	30.9	81	25.8	0	1	315	0.00	29.917 
22:30	30.7	30.7	30.7	81	25.6	0	1	315	0.00	29.918 
22:35	30.7	30.7	30.7	81	25.6	0	1	315	0.00	29.918 
22:40	30.7	30.7	30.7	81	25.6	0	1	315	0.00	29.918 
22:45	30.6	30.6	30.6	81	25.5	0	1	315	0.00	29.928 
22:50	30.6	30.6	30.6	82	25.8	0	1	315	0.00	29.928 
22:55	30.6	30.6	30.6	82	25.8	0	1	315	0.00	29.928 
23:00	30.6	30.6	30.6	82	25.8	0	2	315	0.00	29.931 
23:05	30.4	30.4	30.4	83	25.9	0	1	315	0.00	29.931 
23:10	30.3	30.3	30.3	83	25.8	0	2	315	0.00	29.931 
23:15	30.1	30.1	30.1	84	25.9	0	1	315	0.00	29.936 
23:20	30.0	30.0	30.0	85	26.0	0	1	315	0.00	29.936 
23:25	30.0	30.0	30.0	85	26.0	0	1	315	0.00	29.936 
23:30	29.8	29.8	29.8	86	26.1	0	1	315	0.00	29.944 
23:35	29.7	29.7	29.7	86	26.0	0	1	315	0.00	29.944 
23:40	29.7	29.7	29.7	87	26.3	0	2	315	0.00	29.944 
23:45	29.5	29.5	29.5	87	26.1	0	1	315	0.00	29.948 
23:50	29.5	29.5	29.5	88	26.4	0	1	315	0.00	29.948 
23:55	29.4	29.4	29.4	88	26.3	0	0	---	0.00	29.948 

CoCoRaHS
IN-AL-39
A2 Web Hosting
Creative Commons License
GoDaddy
search engine by freefind advanced

loaded 2018-11-13 22:10:34 • last modified 2010-11-18 10:43:29
Privacy PolicyDisclaimer
• wx.awcolley.com is powered by PmWiki v.2002016 •
• all content (unless otherwise noted) © 2018 A W Colley